Time;durP1;ratioP1;P1;durP2;ratioP2;P2;SDS_P1;SDS_P2;PMS_P1;PMS_P2;Temp;Humidity;BMP_temperature;BMP_pressure;BME280_temperature;BME280_humidity;BME280_pressure;Samples;Min_cycle;Max_cycle;Signal;HPM_P1;HPM_P2
2023/05/26 00:01:03;;;;;;;;;12.50;11.25;;;;;;;;2002856;28;1829410;-72
2023/05/26 00:02:13;;;;;;;;;13.00;11.00;;;;;;;;2001664;28;2784635;-72
2023/05/26 00:03:27;;;;;;;;;5.00;3.67;;;;;;;;2006351;28;2733623;-72
2023/05/26 00:04:37;;;;;;;;;10.00;10.00;;;;;;;;2000021;28;2781521;-72
2023/05/26 00:05:48;;;;;;;;;11.50;11.00;;;;;;;;1984283;28;2790173;-72
2023/05/26 00:06:59;;;;;;;;;10.75;9.50;;;;;;;;2000523;28;1829468;-72
2023/05/26 00:08:09;;;;;;;;;12.00;9.50;;;;;;;;2000114;28;2777339;-72
2023/05/26 00:09:21;;;;;;;;;12.00;11.00;;;;;;;;1998825;28;2781470;-72
2023/05/26 00:10:31;;;;;;;;;13.00;12.00;;;;;;;;1989721;28;2799226;-72
2023/05/26 00:11:44;;;;;;;;;16.14;11.57;;;;;;;;2000025;28;3532502;-72
2023/05/26 00:12:56;;;;;;;;;16.17;12.83;;;;;;;;2024106;28;2807542;-72
2023/05/26 00:14:10;;;;;;;;;13.86;11.57;;;;;;;;1999527;28;2812783;-71
2023/05/26 00:15:23;;;;;;;;;9.00;8.67;;;;;;;;2033035;28;2765925;-72
2023/05/26 00:16:34;;;;;;;;;10.00;9.00;;;;;;;;2000745;28;2773197;-72
2023/05/26 00:17:47;;;;;;;;;11.17;10.17;;;;;;;;2024795;28;2780487;-72
2023/05/26 00:18:57;;;;;;;;;10.00;9.00;;;;;;;;1976049;28;2762772;-72
2023/05/26 00:20:10;;;;;;;;;12.57;11.71;;;;;;;;2016813;28;2805435;-72
2023/05/26 00:21:21;;;;;;;;;13.00;12.00;;;;;;;;1992305;28;2801301;-72
2023/05/26 00:22:34;;;;;;;;;10.50;10.50;;;;;;;;2000275;28;2800267;-72
2023/05/26 00:23:48;;;;;;;;;12.57;11.43;;;;;;;;2007326;28;1833570;-72
2023/05/26 00:24:59;;;;;;;;;13.00;10.33;;;;;;;;1998770;28;2789895;-72
2023/05/26 00:26:10;;;;;;;;;13.00;11.00;;;;;;;;2000160;28;2791756;-72
2023/05/26 00:27:21;;;;;;;;;10.00;10.00;;;;;;;;2000916;28;2787727;-71
2023/05/26 00:28:32;;;;;;;;;13.50;12.83;;;;;;;;2022626;28;2805500;-72
2023/05/26 00:29:45;;;;;;;;;12.83;11.67;;;;;;;;2001168;28;2802342;-72
2023/05/26 00:30:57;;;;;;;;;12.29;12.14;;;;;;;;1992630;28;2810667;-72
2023/05/26 00:32:07;;;;;;;;;10.50;10.50;;;;;;;;1997240;28;2779423;-72
2023/05/26 00:33:18;;;;;;;;;12.25;11.25;;;;;;;;2028254;28;1825322;-72
2023/05/26 00:34:29;;;;;;;;;9.50;9.50;;;;;;;;2002923;28;2773188;-72
2023/05/26 00:35:40;;;;;;;;;12.00;12.00;;;;;;;;1998017;28;2792931;-71
2023/05/26 00:36:51;;;;;;;;;14.75;11.75;;;;;;;;2004327;28;1829023;-71
2023/05/26 00:38:02;;;;;;;;;15.67;11.67;;;;;;;;2002716;28;2801345;-71
2023/05/26 00:39:12;;;;;;;;;10.00;10.00;;;;;;;;1993576;28;2782563;-71
2023/05/26 00:40:23;;;;;;;;;12.50;12.50;;;;;;;;2020829;28;1827425;-71
2023/05/26 00:41:34;;;;;;;;;18.00;13.50;;;;;;;;2001829;28;2808604;-72
2023/05/26 00:42:45;;;;;;;;;13.80;12.40;;;;;;;;2002561;28;2801303;-72
2023/05/26 00:43:56;;;;;;;;;14.00;13.00;;;;;;;;1997991;28;2796088;-71
2023/05/26 00:45:08;;;;;;;;;14.33;13.50;;;;;;;;1992080;28;2790908;-72
2023/05/26 00:46:19;;;;;;;;;12.33;12.33;;;;;;;;1974471;28;2807905;-71
2023/05/26 00:47:30;;;;;;;;;14.00;12.00;;;;;;;;1998824;28;2790208;-72
2023/05/26 00:48:41;;;;;;;;;16.50;12.50;;;;;;;;2004436;28;1822196;-71
2023/05/26 00:49:51;;;;;;;;;13.50;12.00;;;;;;;;2003824;28;2786679;-71
2023/05/26 00:51:02;;;;;;;;;12.00;8.00;;;;;;;;1978847;28;2765905;-71
2023/05/26 00:52:14;;;;;;;;;14.20;11.60;;;;;;;;1997871;28;1833584;-71
2023/05/26 00:53:28;;;;;;;;;14.14;10.57;;;;;;;;2030646;28;1829452;-71
2023/05/26 00:54:39;;;;;;;;;15.00;11.00;;;;;;;;1999650;28;2803384;-71
2023/05/26 00:55:51;;;;;;;;;15.00;9.50;;;;;;;;1968292;28;2786775;-71
2023/05/26 00:57:02;;;;;;;;;12.00;11.00;;;;;;;;1968701;28;2787802;-71
2023/05/26 00:58:12;;;;;;;;;12.00;11.50;;;;;;;;1975677;28;2791907;-71
2023/05/26 00:59:23;;;;;;;;;11.00;11.00;;;;;;;;1999824;28;2786735;-71
2023/05/26 01:00:35;;;;;;;;;10.75;10.75;;;;;;;;2021465;28;2789870;-71
2023/05/26 01:01:45;;;;;;;;;11.00;9.00;;;;;;;;1975378;28;2780780;-71
2023/05/26 01:02:58;;;;;;;;;18.00;13.29;;;;;;;;2001648;28;3535678;-71
2023/05/26 01:04:09;;;;;;;;;16.00;15.00;;;;;;;;2016885;28;2801349;-71
2023/05/26 01:05:22;;;;;;;;;15.71;12.71;;;;;;;;1999060;28;2815888;-71
2023/05/26 01:06:33;;;;;;;;;12.00;11.00;;;;;;;;1997034;28;2787768;-71
2023/05/26 01:07:45;;;;;;;;;14.14;13.71;;;;;;;;1999045;28;2801387;-71
2023/05/26 01:08:56;;;;;;;;;16.00;12.00;;;;;;;;1998014;28;2798172;-72
2023/05/26 01:10:07;;;;;;;;;14.00;13.00;;;;;;;;2002166;28;1843028;-71
2023/05/26 01:11:25;;;;;;;;;14.14;12.57;;;;;;;;2030930;28;1835683;-71
2023/05/26 01:13:02;;;;;;;;;16.67;11.67;;;;;;;;1990703;28;3542424;-71
2023/05/26 01:14:34;;;;;;;;;15.00;10.50;;;;;;;;1984363;28;2781523;-71
2023/05/26 01:15:47;;;;;;;;;15.33;13.00;;;;;;;;1999919;28;2805593;-71
2023/05/26 01:17:03;;;;;;;;;14.40;12.80;;;;;;;;2010486;28;2801265;-71
2023/05/26 01:18:26;;;;;;;;;16.86;12.29;;;;;;;;1999411;28;1835719;-72
2023/05/26 01:19:42;;;;;;;;;15.00;15.00;;;;;;;;2001673;28;2806863;-71
2023/05/26 01:20:57;;;;;;;;;16.40;12.20;;;;;;;;2010916;28;2801274;-71
2023/05/26 01:22:18;;;;;;;;;11.00;9.50;;;;;;;;1969394;28;2775236;-71
2023/05/26 01:23:37;;;;;;;;;14.00;12.00;;;;;;;;1977342;28;2786749;-71
2023/05/26 01:25:13;;;;;;;;;13.00;12.00;;;;;;;;1979977;28;2809637;-71
2023/05/26 01:26:43;;;;;;;;;17.67;15.67;;;;;;;;1998875;28;2819052;-71
2023/05/26 01:28:08;;;;;;;;;16.80;15.20;;;;;;;;2018230;28;3541868;-71
2023/05/26 01:29:20;;;;;;;;;14.00;13.00;;;;;;;;1999613;28;2805467;-71
2023/05/26 01:30:31;;;;;;;;;14.00;11.00;;;;;;;;1977254;28;2789859;-71
2023/05/26 01:31:41;;;;;;;;;16.00;15.00;;;;;;;;1978389;28;2805416;-72
2023/05/26 01:32:53;;;;;;;;;18.40;16.00;;;;;;;;1983889;28;3555402;-71
2023/05/26 01:34:05;;;;;;;;;19.40;14.00;;;;;;;;2022190;28;3544997;-72
2023/05/26 01:35:18;;;;;;;;;15.60;14.00;;;;;;;;2030321;28;1830494;-72
2023/05/26 01:36:29;;;;;;;;;14.00;14.00;;;;;;;;1975709;28;2790885;-71
2023/05/26 01:37:41;;;;;;;;;14.80;14.60;;;;;;;;1983291;28;2798259;-71
2023/05/26 01:38:52;;;;;;;;;16.00;14.67;;;;;;;;1999092;28;2791889;-71
2023/05/26 01:40:04;;;;;;;;;16.33;15.00;;;;;;;;1998830;28;2809645;-71
2023/05/26 01:41:27;;;;;;;;;16.33;16.00;;;;;;;;1999802;28;3551302;-71
2023/05/26 01:42:40;;;;;;;;;19.50;15.50;;;;;;;;2001721;28;2820077;-71
2023/05/26 01:43:58;;;;;;;;;16.00;14.00;;;;;;;;1999754;28;2816999;-72
2023/05/26 01:45:09;;;;;;;;;18.00;15.50;;;;;;;;2000535;28;2815884;-71
2023/05/26 01:46:26;;;;;;;;;18.00;14.33;;;;;;;;1988184;28;2814787;-71
2023/05/26 01:47:40;;;;;;;;;16.33;13.83;;;;;;;;2030026;28;1839857;-71
2023/05/26 01:48:51;;;;;;;;;15.00;14.00;;;;;;;;1968379;28;2796093;-71
2023/05/26 01:50:04;;;;;;;;;17.67;15.33;;;;;;;;1970353;28;3549183;-71
2023/05/26 01:51:16;;;;;;;;;17.67;16.33;;;;;;;;2002835;28;2820034;-71
2023/05/26 01:52:27;;;;;;;;;16.50;16.00;;;;;;;;2002297;28;2827302;-71
2023/05/26 01:53:42;;;;;;;;;17.20;14.60;;;;;;;;2003422;28;3529353;-71
2023/05/26 01:54:57;;;;;;;;;20.00;17.33;;;;;;;;1998084;28;3566856;-72
2023/05/26 01:56:08;;;;;;;;;21.50;19.50;;;;;;;;2001796;28;2833543;-71
2023/05/26 01:57:20;;;;;;;;;19.40;18.80;;;;;;;;1982763;28;3577277;-71
2023/05/26 01:58:32;;;;;;;;;19.60;16.00;;;;;;;;2010139;28;3550197;-71
2023/05/26 01:59:42;;;;;;;;;19.50;17.00;;;;;;;;2002584;28;2829370;-71
2023/05/26 02:00:54;;;;;;;;;20.00;17.00;;;;;;;;1997659;28;3567909;-71
2023/05/26 02:02:06;;;;;;;;;22.00;18.60;;;;;;;;2026828;28;3562712;-71
2023/05/26 02:03:18;;;;;;;;;18.20;16.40;;;;;;;;2028317;28;3557478;-71
2023/05/26 02:04:30;;;;;;;;;18.67;16.67;;;;;;;;2011834;28;3562717;-71
2023/05/26 02:05:43;;;;;;;;;16.57;16.14;;;;;;;;2023465;28;3534604;-71
2023/05/26 02:06:55;;;;;;;;;16.80;14.60;;;;;;;;2022445;28;3536672;-71
2023/05/26 02:08:06;;;;;;;;;21.20;17.80;;;;;;;;2010388;28;3561011;-71
2023/05/26 02:09:19;;;;;;;;;21.00;18.57;;;;;;;;2020252;28;3575573;-71
2023/05/26 02:10:31;;;;;;;;;18.80;17.40;;;;;;;;2018596;28;3555447;-71
2023/05/26 02:11:44;;;;;;;;;21.86;19.57;;;;;;;;2015672;28;3575258;-71
2023/05/26 02:12:56;;;;;;;;;17.40;15.40;;;;;;;;2028172;28;3548123;-71
2023/05/26 02:14:08;;;;;;;;;19.40;17.60;;;;;;;;2030030;28;3565820;-71
2023/05/26 02:15:20;;;;;;;;;21.00;16.43;;;;;;;;2023958;28;3564839;-71
2023/05/26 02:16:34;;;;;;;;;18.00;16.14;;;;;;;;2023512;28;3557529;-71
2023/05/26 02:17:47;;;;;;;;;22.00;19.00;;;;;;;;2002324;28;2835689;-71
2023/05/26 02:18:58;;;;;;;;;18.00;15.50;;;;;;;;1994249;28;2814842;-71
2023/05/26 02:20:10;;;;;;;;;21.60;17.00;;;;;;;;1991338;28;3555768;-71
2023/05/26 02:21:21;;;;;;;;;24.00;17.67;;;;;;;;1998740;28;3572099;-71
2023/05/26 02:22:33;;;;;;;;;19.40;16.20;;;;;;;;2027770;28;3568974;-71
2023/05/26 02:23:45;;;;;;;;;24.60;21.80;;;;;;;;2029266;28;3574156;-71
2023/05/26 02:24:57;;;;;;;;;22.00;18.40;;;;;;;;1994802;28;3581502;-71
2023/05/26 02:26:10;;;;;;;;;21.71;19.86;;;;;;;;1992582;28;3559604;-71
2023/05/26 02:27:21;;;;;;;;;24.80;22.40;;;;;;;;1985772;28;2846128;-71
2023/05/26 02:28:32;;;;;;;;;19.33;17.67;;;;;;;;1996490;28;3562692;-71
2023/05/26 02:29:44;;;;;;;;;18.40;17.80;;;;;;;;2014064;28;3566895;-71
2023/05/26 02:30:56;;;;;;;;;20.33;19.67;;;;;;;;2017600;28;3573185;-71
2023/05/26 02:32:09;;;;;;;;;23.71;21.14;;;;;;;;2015237;28;3575594;-71
2023/05/26 02:33:23;;;;;;;;;27.13;20.75;;;;;;;;1985049;28;3603316;-71
2023/05/26 02:34:33;;;;;;;;;21.00;18.00;;;;;;;;1995234;28;2824298;-71
2023/05/26 02:35:45;;;;;;;;;20.80;19.60;;;;;;;;1991399;28;3576265;-71
2023/05/26 02:36:58;;;;;;;;;23.29;18.86;;;;;;;;2016549;28;3577325;-71
2023/05/26 02:38:10;;;;;;;;;24.40;19.00;;;;;;;;2026168;28;3579718;-71
2023/05/26 02:39:23;;;;;;;;;19.86;17.71;;;;;;;;1999411;28;3563785;-71
2023/05/26 02:40:34;;;;;;;;;18.80;18.80;;;;;;;;2023199;28;3567925;-71
2023/05/26 02:41:47;;;;;;;;;28.00;19.80;;;;;;;;2028398;28;3597077;-71
2023/05/26 02:42:58;;;;;;;;;23.00;19.33;;;;;;;;1992730;28;3570028;-71
2023/05/26 02:44:13;;;;;;;;;20.71;17.57;;;;;;;;2023287;28;3575244;-71
2023/05/26 02:45:24;;;;;;;;;21.00;19.67;;;;;;;;1978114;28;3573196;-71
2023/05/26 02:46:36;;;;;;;;;20.80;18.60;;;;;;;;2027599;28;3572087;-71
2023/05/26 02:47:48;;;;;;;;;21.20;17.80;;;;;;;;2028243;28;3571034;-71
2023/05/26 02:49:01;;;;;;;;;20.14;17.71;;;;;;;;2022078;28;3570045;-71
2023/05/26 02:50:13;;;;;;;;;22.40;19.40;;;;;;;;2029090;28;3566879;-71
2023/05/26 02:51:26;;;;;;;;;28.14;22.29;;;;;;;;2010542;28;3596477;-71
2023/05/26 02:52:38;;;;;;;;;22.00;19.80;;;;;;;;1975898;28;3569489;-71
2023/05/26 02:53:50;;;;;;;;;17.57;16.71;;;;;;;;2016330;28;3548157;-71
2023/05/26 02:55:03;;;;;;;;;24.00;21.40;;;;;;;;2028240;28;3574178;-71
2023/05/26 02:56:15;;;;;;;;;21.00;19.33;;;;;;;;2013577;28;3569006;-71
2023/05/26 02:57:26;;;;;;;;;24.00;21.00;;;;;;;;1977814;28;2843010;-71
2023/05/26 02:58:38;;;;;;;;;24.00;19.60;;;;;;;;1994655;28;3575235;-71
2023/05/26 02:59:50;;;;;;;;;21.40;18.00;;;;;;;;2021342;28;3562134;-71
2023/05/26 03:01:01;;;;;;;;;23.80;19.40;;;;;;;;2009602;28;2839802;-71
2023/05/26 03:02:11;;;;;;;;;19.50;18.50;;;;;;;;2003884;28;2824189;-71
2023/05/26 03:03:23;;;;;;;;;22.80;20.20;;;;;;;;2022428;28;3573119;-71
2023/05/26 03:04:35;;;;;;;;;21.40;17.80;;;;;;;;2029159;28;3568959;-72
2023/05/26 03:05:47;;;;;;;;;20.80;18.20;;;;;;;;2026100;28;3559652;-71
2023/05/26 03:07:01;;;;;;;;;21.14;17.14;;;;;;;;2015495;28;3579394;-71
2023/05/26 03:08:11;;;;;;;;;27.00;20.50;;;;;;;;1986628;28;2840871;-71
2023/05/26 03:09:23;;;;;;;;;19.80;16.60;;;;;;;;1999670;28;3567229;-71
2023/05/26 03:10:35;;;;;;;;;23.60;17.80;;;;;;;;2028075;28;3562712;-71
2023/05/26 03:11:46;;;;;;;;;17.00;15.20;;;;;;;;2019368;28;3546063;-71
2023/05/26 03:12:59;;;;;;;;;25.71;21.86;;;;;;;;2023421;28;3582512;-71
2023/05/26 03:14:11;;;;;;;;;18.00;17.60;;;;;;;;1995794;28;3555429;-71
2023/05/26 03:15:24;;;;;;;;;22.60;19.00;;;;;;;;2019420;28;3574139;-71
2023/05/26 03:16:35;;;;;;;;;19.50;17.50;;;;;;;;2003116;28;2826279;-71
2023/05/26 03:17:46;;;;;;;;;21.80;20.60;;;;;;;;2005937;28;3580416;-71
2023/05/26 03:19:00;;;;;;;;;19.43;18.86;;;;;;;;2000101;28;3559589;-71
2023/05/26 03:20:11;;;;;;;;;18.00;17.00;;;;;;;;2001748;28;2822149;-71
2023/05/26 03:21:22;;;;;;;;;23.80;18.60;;;;;;;;1980272;28;3566876;-71
2023/05/26 03:22:35;;;;;;;;;26.14;18.29;;;;;;;;2020774;28;3600236;-71
2023/05/26 03:23:46;;;;;;;;;21.50;18.50;;;;;;;;1994578;28;1828428;-71
2023/05/26 03:24:57;;;;;;;;;20.00;18.80;;;;;;;;1996987;28;3577334;-71
2023/05/26 03:26:10;;;;;;;;;21.20;18.00;;;;;;;;2027949;28;3565814;-71
2023/05/26 03:27:23;;;;;;;;;21.00;16.67;;;;;;;;1998331;28;3562728;-71
2023/05/26 03:28:33;;;;;;;;;21.00;18.50;;;;;;;;2001797;28;2838791;-71
2023/05/26 03:29:45;;;;;;;;;18.60;17.60;;;;;;;;1992349;28;3568955;-71
2023/05/26 03:30:58;;;;;;;;;20.33;15.33;;;;;;;;2008169;28;3553717;-71
2023/05/26 03:32:09;;;;;;;;;21.00;16.67;;;;;;;;1994745;28;3564824;-71
2023/05/26 03:33:22;;;;;;;;;23.50;16.83;;;;;;;;2025750;28;2804406;-71
2023/05/26 03:34:39;;;;;;;;;17.71;15.43;;;;;;;;1993460;28;3550252;-71
2023/05/26 03:35:50;;;;;;;;;14.00;14.00;;;;;;;;1993345;28;2803391;-71
2023/05/26 03:37:01;;;;;;;;;21.00;16.00;;;;;;;;1975833;28;3566837;-71
2023/05/26 03:38:14;;;;;;;;;21.14;17.43;;;;;;;;2022208;28;3581482;-71
2023/05/26 03:39:26;;;;;;;;;21.40;18.00;;;;;;;;1994624;28;3563757;-71
2023/05/26 03:40:38;;;;;;;;;20.40;18.40;;;;;;;;2018544;28;3562724;-71
2023/05/26 03:41:50;;;;;;;;;19.86;15.86;;;;;;;;2023511;28;3566887;-71
2023/05/26 03:43:03;;;;;;;;;15.29;13.71;;;;;;;;2022131;28;3532514;-71
2023/05/26 03:44:21;;;;;;;;;18.14;17.29;;;;;;;;2023479;28;3564843;-71
2023/05/26 03:45:31;;;;;;;;;21.00;17.50;;;;;;;;2001446;28;2831535;-71
2023/05/26 03:46:44;;;;;;;;;17.00;16.20;;;;;;;;2017716;28;3558562;-71
2023/05/26 03:47:56;;;;;;;;;22.00;17.00;;;;;;;;1993313;28;3565862;-71
2023/05/26 03:49:08;;;;;;;;;14.86;14.86;;;;;;;;2022403;28;2809586;-71
2023/05/26 03:50:19;;;;;;;;;19.33;15.33;;;;;;;;1999460;28;3559608;-71
2023/05/26 03:51:31;;;;;;;;;24.20;18.40;;;;;;;;2026588;28;3561651;-71
2023/05/26 03:52:44;;;;;;;;;17.14;15.43;;;;;;;;2013555;28;2812730;-71
2023/05/26 03:53:55;;;;;;;;;17.00;15.00;;;;;;;;1990257;28;3542969;-71
2023/05/26 03:55:09;;;;;;;;;19.40;17.60;;;;;;;;2025553;28;3557503;-71
2023/05/26 03:56:20;;;;;;;;;17.67;14.33;;;;;;;;2000136;28;3541856;-71
2023/05/26 03:57:33;;;;;;;;;18.57;15.00;;;;;;;;2016316;28;3545029;-71
2023/05/26 03:58:44;;;;;;;;;19.25;14.50;;;;;;;;2011444;28;1840935;-71
2023/05/26 03:59:54;;;;;;;;;21.00;18.00;;;;;;;;1993374;28;2831735;-71
2023/05/26 04:01:07;;;;;;;;;20.43;17.71;;;;;;;;2015987;28;3564851;-71
2023/05/26 04:02:19;;;;;;;;;16.00;16.00;;;;;;;;2008753;28;3552337;-71
2023/05/26 04:03:32;;;;;;;;;18.14;16.29;;;;;;;;2013944;28;3562725;-71
2023/05/26 04:04:45;;;;;;;;;21.71;16.29;;;;;;;;2014930;28;3560681;-71
2023/05/26 04:05:59;;;;;;;;;23.43;17.86;;;;;;;;2012004;28;3567960;-71
2023/05/26 04:07:10;;;;;;;;;16.50;13.50;;;;;;;;1971426;28;2802338;-71
2023/05/26 04:08:23;;;;;;;;;19.29;16.14;;;;;;;;2013982;28;3566896;-71
2023/05/26 04:09:35;;;;;;;;;17.20;13.80;;;;;;;;2015272;28;3545074;-71
2023/05/26 04:10:45;;;;;;;;;18.00;15.00;;;;;;;;2001341;28;2813293;-71
2023/05/26 04:11:58;;;;;;;;;17.29;16.29;;;;;;;;1982599;28;3549177;-71
2023/05/26 04:13:11;;;;;;;;;16.43;15.71;;;;;;;;2008438;28;3530547;-71
2023/05/26 04:14:23;;;;;;;;;17.00;16.20;;;;;;;;2010856;28;3559557;-71
2023/05/26 04:15:36;;;;;;;;;20.00;16.00;;;;;;;;2025557;28;2825223;-71
2023/05/26 04:16:49;;;;;;;;;21.43;17.00;;;;;;;;1991505;28;3525243;-71
2023/05/26 04:18:00;;;;;;;;;16.33;14.00;;;;;;;;2002698;28;2798660;-71
2023/05/26 04:19:11;;;;;;;;;16.00;12.50;;;;;;;;1995494;28;2813811;-71
2023/05/26 04:20:24;;;;;;;;;22.43;15.00;;;;;;;;2015961;28;3567940;-71
2023/05/26 04:21:35;;;;;;;;;11.67;8.00;;;;;;;;2004333;28;3464796;-71
2023/05/26 04:22:45;;;;;;;;;16.00;14.50;;;;;;;;1988909;28;2812783;-71
2023/05/26 04:23:58;;;;;;;;;21.71;14.86;;;;;;;;1991080;28;3541897;-71
2023/05/26 04:25:09;;;;;;;;;12.25;11.00;;;;;;;;2019131;28;1828428;-71
2023/05/26 04:26:21;;;;;;;;;19.50;14.00;;;;;;;;1985395;28;2814841;-71
2023/05/26 04:27:31;;;;;;;;;25.50;16.50;;;;;;;;1986229;28;2842954;-71
2023/05/26 04:28:44;;;;;;;;;17.50;11.75;;;;;;;;1994737;28;1829429;-71
2023/05/26 04:29:58;;;;;;;;;20.67;14.33;;;;;;;;1991279;28;2825281;-71
2023/05/26 04:31:09;;;;;;;;;15.67;13.67;;;;;;;;1990810;28;2805456;-71
2023/05/26 04:32:21;;;;;;;;;19.33;17.33;;;;;;;;1978607;28;2831450;-71
2023/05/26 04:33:39;;;;;;;;;19.43;13.71;;;;;;;;2008762;28;1831563;-71
2023/05/26 04:34:49;;;;;;;;;22.00;17.00;;;;;;;;1993465;28;2834686;-71
2023/05/26 04:36:02;;;;;;;;;23.86;15.14;;;;;;;;1987181;28;3568931;-71
2023/05/26 04:37:15;;;;;;;;;19.71;12.86;;;;;;;;1994398;28;3524204;-72
2023/05/26 04:38:28;;;;;;;;;16.40;15.40;;;;;;;;2026235;28;3553327;-71
2023/05/26 04:39:39;;;;;;;;;18.33;15.67;;;;;;;;1992706;28;3551302;-71
2023/05/26 04:40:51;;;;;;;;;17.60;15.20;;;;;;;;2007326;28;3556516;-71
2023/05/26 04:42:04;;;;;;;;;17.71;14.14;;;;;;;;2005256;28;3546066;-71
2023/05/26 04:43:15;;;;;;;;;18.60;15.80;;;;;;;;2018651;28;1835769;-71
2023/05/26 04:44:27;;;;;;;;;19.00;15.33;;;;;;;;1992187;28;3557544;-71
2023/05/26 04:45:40;;;;;;;;;13.40;11.80;;;;;;;;1992180;28;2789902;-71
2023/05/26 04:46:53;;;;;;;;;17.67;14.67;;;;;;;;1985514;28;2831540;-71
2023/05/26 04:48:05;;;;;;;;;17.00;15.00;;;;;;;;1992004;28;2813769;-71
2023/05/26 04:49:16;;;;;;;;;20.00;15.33;;;;;;;;1969738;28;2827397;-71
2023/05/26 04:50:26;;;;;;;;;20.00;17.00;;;;;;;;1995833;28;2818980;-71
2023/05/26 04:51:39;;;;;;;;;16.57;10.14;;;;;;;;1995772;28;2795038;-71
2023/05/26 04:52:50;;;;;;;;;17.50;14.50;;;;;;;;1989695;28;2812754;-71
2023/05/26 04:54:01;;;;;;;;;17.60;17.60;;;;;;;;1977246;28;3562713;-71
2023/05/26 04:55:14;;;;;;;;;15.57;13.43;;;;;;;;2009241;28;3525255;-71
2023/05/26 04:56:26;;;;;;;;;16.60;16.00;;;;;;;;2024334;28;3551348;-71
2023/05/26 04:57:38;;;;;;;;;19.20;17.00;;;;;;;;2024640;28;3557493;-71
2023/05/26 04:58:50;;;;;;;;;18.00;16.80;;;;;;;;2029051;28;3552287;-71
2023/05/26 05:00:05;;;;;;;;;18.86;15.29;;;;;;;;2014821;28;3540882;-71
2023/05/26 05:01:17;;;;;;;;;16.67;16.00;;;;;;;;1991682;28;2814957;-71
2023/05/26 05:02:28;;;;;;;;;17.00;14.00;;;;;;;;1999184;28;2802378;-71
2023/05/26 05:03:42;;;;;;;;;15.33;14.00;;;;;;;;1992472;28;3528355;-71
2023/05/26 05:04:54;;;;;;;;;15.00;13.00;;;;;;;;1999030;28;2801381;-71
2023/05/26 05:06:04;;;;;;;;;13.00;13.00;;;;;;;;1996450;28;2789824;-71
2023/05/26 05:07:16;;;;;;;;;22.00;15.00;;;;;;;;1996419;28;3558539;-71
2023/05/26 05:08:30;;;;;;;;;19.29;15.29;;;;;;;;2023471;28;3556522;-71
2023/05/26 05:09:40;;;;;;;;;13.00;10.00;;;;;;;;1999727;28;2774211;-71
2023/05/26 05:10:53;;;;;;;;;18.57;15.14;;;;;;;;1995708;28;3533535;-71
2023/05/26 05:12:05;;;;;;;;;17.20;15.80;;;;;;;;2021125;28;3523104;-71
2023/05/26 05:13:18;;;;;;;;;19.57;15.86;;;;;;;;2013341;28;3554915;-71
2023/05/26 05:14:28;;;;;;;;;17.00;13.00;;;;;;;;2003563;28;2791943;-71
2023/05/26 05:15:39;;;;;;;;;14.00;9.75;;;;;;;;1995264;28;1818714;-71
2023/05/26 05:16:51;;;;;;;;;20.60;17.20;;;;;;;;2000112;28;3564788;-71
2023/05/26 05:18:02;;;;;;;;;15.60;13.40;;;;;;;;2021046;28;2788833;-71
2023/05/26 05:19:13;;;;;;;;;17.00;16.00;;;;;;;;2002631;28;2818969;-71
2023/05/26 05:20:25;;;;;;;;;22.33;15.67;;;;;;;;1998592;28;3563767;-71
2023/05/26 05:21:37;;;;;;;;;16.00;16.00;;;;;;;;2017452;28;3553370;-71
2023/05/26 05:22:48;;;;;;;;;13.00;11.50;;;;;;;;2016410;28;2793003;-71
2023/05/26 05:23:59;;;;;;;;;16.25;12.75;;;;;;;;1992482;28;2798534;-71
2023/05/26 05:25:11;;;;;;;;;22.00;16.57;;;;;;;;1989859;28;3571412;-71
2023/05/26 05:26:25;;;;;;;;;19.57;15.57;;;;;;;;2019587;28;3534604;-71
2023/05/26 05:27:36;;;;;;;;;27.67;12.33;;;;;;;;1999605;28;3574214;-71
2023/05/26 05:28:49;;;;;;;;;18.43;11.86;;;;;;;;2020934;28;2806476;-71
2023/05/26 05:30:03;;;;;;;;;16.50;14.00;;;;;;;;2028661;28;1835783;-71
2023/05/26 05:31:13;;;;;;;;;12.00;9.50;;;;;;;;1977916;28;2775262;-71
2023/05/26 05:32:25;;;;;;;;;17.00;14.20;;;;;;;;2023959;28;2805582;-71
2023/05/26 05:33:42;;;;;;;;;14.50;9.00;;;;;;;;1990733;28;2770036;-71
2023/05/26 05:34:55;;;;;;;;;18.20;13.60;;;;;;;;2012481;28;2823159;-71
2023/05/26 05:36:08;;;;;;;;;20.57;16.14;;;;;;;;1991913;28;3561695;-71
2023/05/26 05:37:19;;;;;;;;;20.67;17.00;;;;;;;;2010297;28;3568362;-71
2023/05/26 05:38:32;;;;;;;;;17.29;15.29;;;;;;;;2012036;28;3520006;-71
2023/05/26 05:39:44;;;;;;;;;16.20;15.60;;;;;;;;2022452;28;3545332;-71
2023/05/26 05:40:56;;;;;;;;;16.67;14.00;;;;;;;;2006106;28;2793052;-71
2023/05/26 05:42:06;;;;;;;;;20.00;12.50;;;;;;;;1994779;28;2810699;-71
2023/05/26 05:43:19;;;;;;;;;19.57;15.00;;;;;;;;2022933;28;2800331;-71
2023/05/26 05:44:30;;;;;;;;;16.00;14.00;;;;;;;;2001040;28;2800307;-71
2023/05/26 05:45:41;;;;;;;;;15.33;13.00;;;;;;;;1992359;28;2803743;-71
2023/05/26 05:46:52;;;;;;;;;15.67;15.67;;;;;;;;1997872;28;2803381;-71
2023/05/26 05:48:03;;;;;;;;;18.00;15.50;;;;;;;;1995944;28;2823179;-71
2023/05/26 05:49:14;;;;;;;;;17.80;15.80;;;;;;;;1993940;28;3560633;-71
2023/05/26 05:50:26;;;;;;;;;18.00;15.20;;;;;;;;2027870;28;3541942;-71
2023/05/26 05:51:39;;;;;;;;;18.71;15.29;;;;;;;;2023490;28;3540865;-71
2023/05/26 05:52:50;;;;;;;;;10.00;8.00;;;;;;;;2019465;28;2496083;-71
2023/05/26 05:54:03;;;;;;;;;14.29;13.43;;;;;;;;2021261;28;3520256;-71
2023/05/26 05:55:16;;;;;;;;;18.86;16.14;;;;;;;;2020184;28;3559696;-72
2023/05/26 05:56:28;;;;;;;;;21.71;16.00;;;;;;;;2020428;28;3564867;-71
2023/05/26 05:57:41;;;;;;;;;24.00;19.00;;;;;;;;2007875;28;3573150;-71
2023/05/26 05:58:54;;;;;;;;;19.43;15.86;;;;;;;;2005893;28;3559635;-71
2023/05/26 06:00:09;;;;;;;;;20.80;17.60;;;;;;;;2021184;28;3562757;-71
2023/05/26 06:01:20;;;;;;;;;26.67;16.00;;;;;;;;1991908;28;3569345;-72
2023/05/26 06:02:33;;;;;;;;;20.14;16.43;;;;;;;;2016512;28;3558599;-71
2023/05/26 06:03:46;;;;;;;;;19.00;14.71;;;;;;;;2006598;28;3552360;-71
2023/05/26 06:04:59;;;;;;;;;21.43;18.29;;;;;;;;2007468;28;3565871;-72
2023/05/26 06:06:10;;;;;;;;;16.20;14.20;;;;;;;;2018320;28;3520091;-71
2023/05/26 06:07:23;;;;;;;;;16.29;15.00;;;;;;;;2014046;28;2801300;-71
2023/05/26 06:08:34;;;;;;;;;16.00;14.67;;;;;;;;1994761;28;2799374;-71
2023/05/26 06:09:45;;;;;;;;;22.50;18.00;;;;;;;;2000264;28;2828418;-71
2023/05/26 06:10:56;;;;;;;;;17.20;15.20;;;;;;;;2000265;28;2815952;-71
2023/05/26 06:12:08;;;;;;;;;25.67;15.67;;;;;;;;1996075;28;3585690;-71
2023/05/26 06:13:20;;;;;;;;;19.80;16.60;;;;;;;;2022326;28;3563763;-71
2023/05/26 06:14:31;;;;;;;;;15.00;14.00;;;;;;;;2017903;28;2795059;-71
2023/05/26 06:15:42;;;;;;;;;17.80;15.60;;;;;;;;1996773;28;3559557;-71
2023/05/26 06:16:55;;;;;;;;;21.43;15.14;;;;;;;;2006733;28;3556511;-71
2023/05/26 06:18:07;;;;;;;;;24.00;19.00;;;;;;;;2015487;28;3567970;-71
2023/05/26 06:19:20;;;;;;;;;20.71;16.14;;;;;;;;2023439;28;3555465;-70
2023/05/26 06:20:33;;;;;;;;;24.57;18.71;;;;;;;;2023289;28;3581488;-70
2023/05/26 06:21:46;;;;;;;;;18.57;15.86;;;;;;;;2000417;28;3554403;-70
2023/05/26 06:22:57;;;;;;;;;20.60;17.60;;;;;;;;2028425;28;3556454;-70
2023/05/26 06:24:10;;;;;;;;;19.43;16.14;;;;;;;;2024080;28;3566925;-70
2023/05/26 06:25:22;;;;;;;;;20.40;17.00;;;;;;;;2025519;28;3561655;-70
2023/05/26 06:26:34;;;;;;;;;17.80;13.80;;;;;;;;2024105;28;3544985;-70
2023/05/26 06:27:47;;;;;;;;;28.57;15.43;;;;;;;;2021061;28;3555446;-70
2023/05/26 06:28:59;;;;;;;;;21.20;17.60;;;;;;;;2005041;28;3573142;-70
2023/05/26 06:30:12;;;;;;;;;20.57;13.14;;;;;;;;2020953;28;3546063;-71
2023/05/26 06:31:25;;;;;;;;;19.00;16.00;;;;;;;;2016595;28;3557502;-71
2023/05/26 06:32:35;;;;;;;;;15.50;14.50;;;;;;;;1998352;28;2791925;-71
2023/05/26 06:33:48;;;;;;;;;22.86;16.71;;;;;;;;2001554;28;3556981;-71
2023/05/26 06:35:01;;;;;;;;;19.43;16.86;;;;;;;;2021248;28;3555484;-71
2023/05/26 06:36:14;;;;;;;;;22.29;18.29;;;;;;;;2021298;28;3571069;-71
2023/05/26 06:37:25;;;;;;;;;15.00;13.50;;;;;;;;2000635;28;2794080;-71
2023/05/26 06:38:38;;;;;;;;;20.43;17.57;;;;;;;;2001166;28;3573128;-71
2023/05/26 06:39:51;;;;;;;;;21.29;17.00;;;;;;;;2023508;28;3567297;-71
2023/05/26 06:41:02;;;;;;;;;15.33;10.67;;;;;;;;2029212;28;1838936;-71
2023/05/26 06:42:12;;;;;;;;;16.00;16.00;;;;;;;;2002269;28;2808580;-71
2023/05/26 06:43:25;;;;;;;;;23.00;17.00;;;;;;;;1998699;28;3568991;-71
2023/05/26 06:44:38;;;;;;;;;20.71;18.71;;;;;;;;2021910;28;3570032;-71
2023/05/26 06:45:50;;;;;;;;;15.57;15.14;;;;;;;;2018089;28;3534636;-71
2023/05/26 06:47:02;;;;;;;;;19.00;16.20;;;;;;;;2028386;28;3554353;-71
2023/05/26 06:48:15;;;;;;;;;23.43;18.00;;;;;;;;2020265;28;3580444;-71
2023/05/26 06:49:27;;;;;;;;;23.20;17.60;;;;;;;;1992556;28;3567419;-71
2023/05/26 06:50:40;;;;;;;;;22.14;17.71;;;;;;;;2013835;28;3594005;-71